Main page
METAR-TAF:

METAR-TAF

Airports :

Urmia Airport

Urmia, Iran

latitude: 37-32N, longitude: 045-05E, elevation: 1297 m

Current weather observation

The report was made 10 minutes ago, at 14:00 UTC
Wind 4 kt from the Northeast
Temperature 5°C
Humidity 45%
Pressure 1022 hPa
Visibility 10 km or more
Broken clouds at a height of 4000 ft

METAR: OITR 191400Z 04004KT 9999 BKN040 05/M06 Q1022

Time: 17:40 (14:10 UTC)

Forecast

The report was made 3 hours and 10 minutes ago, at 11:00 UTC
Forecast valid from 19 at 12 UTC to 20 at 18 UTC
Wind 6 kt from the West
Visibility: 8000 m
Few clouds at a height of 3000 ft
Broken clouds at a height of 10000 ft

TAF: OITR 191100Z 1912/2018 27006KT 8000 FEW030 BKN100

Weather observations and forecasts of more than 4000 airports (METAR and TAF reports).

The available stations are represented by yellow and red dots on the map.

Hover mouse over dot to see the name of the station.

Then click to see weather observations and forecasts.

To change the map : click on the green buttons with a black cross to zoom in, on the green button with a dash to zoom out, or on the green arrows for adjacent maps.


METAR-TAF: